Latest Weather Observations for Kalgoorlie-Boulder

IDW60801

Issued at 9:35 pm WST Sunday 20 April 2014 (issued every 30 minutes, with the page automatically refreshed every 10 minutes)

About weather observations | Map of weather stations | Latest weather observations for WA | Other Formats
Station Details ID: 012038 Name: KALGOORLIE-BOULDER AIRPORT Lat: -30.78 Lon: 121.45 Height: 365.3 m
Data from the previous 72 hours. | See also: Recent months at Kalgoorlie-Boulder
Date/Time
WST
Temp
°C
App
Temp
°C
Dew
Point
Rel
Hum
%
Delta-T
°C
Wind Press
QNH
hPa
Press
MSL
hPa
Rain
since 9 am
mm
Dir
 
Spd
km/h
Gust
km/h
Spd
kts
Gust
kts
20/09:30pm 20.6 18.3 10.3 51 5.7 SSE 13 17 7 9 1012.0 - 0.0
20/09:00pm 20.9 18.9 10.2 50 5.9 SE 11 15 6 8 1011.8 1010.6 0.0
20/08:30pm 21.4 19.5 10.4 49 6.1 SSE 11 15 6 8 1011.5 - 0.0
20/08:00pm 22.2 20.2 10.3 46 6.6 SE 11 15 6 8 1011.3 - 0.0
20/07:30pm 22.8 20.4 10.2 44 7.0 SSE 13 19 7 10 1011.2 - 0.0
20/07:00pm 23.3 20.6 10.2 43 7.3 SE 15 24 8 13 1011.0 - 0.0
20/06:30pm 23.9 20.9 9.2 39 8.1 SSE 15 22 8 12 1010.7 - 0.0
20/06:00pm 24.3 21.1 9.8 40 8.1 SE 17 24 9 13 1010.3 1009.1 0.0
20/05:30pm 25.0 21.3 9.6 37 8.6 SE 19 28 10 15 1009.7 - 0.0
20/05:00pm 28.4 27.3 8.5 28 11.1 N 4 7 2 4 1009.3 - 0.0
20/04:30pm 29.3 26.8 6.6 24 12.3 NNW 9 11 5 6 1009.3 - 0.0
20/04:00pm 30.1 27.1 6.0 22 13.0 WNW 11 17 6 9 1009.4 - 0.0
20/03:30pm 29.5 26.8 5.8 22 12.7 NNW 9 15 5 8 1009.6 - 0.0
20/03:00pm 30.1 26.1 4.7 20 13.4 NW 15 20 8 11 1009.8 1008.6 0.0
20/02:30pm 29.9 27.7 6.2 22 12.8 NNW 7 20 4 11 1009.9 - 0.0
20/02:00pm 29.4 27.2 7.9 26 11.9 N 9 15 5 8 1009.8 - 0.0
20/01:30pm 28.0 26.3 8.3 29 10.9 S 7 11 4 6 1010.2 - 0.0
20/01:00pm 27.7 26.5 9.4 31 10.3 N 6 11 3 6 1010.6 - 0.0
20/12:30pm 26.5 25.6 10.8 37 9.0 NNE 6 11 3 6 1011.1 - 0.0
20/12:00pm 25.2 24.1 10.8 40 8.2 N 7 15 4 8 1011.9 1010.7 0.0
20/11:30am 24.3 23.3 10.9 43 7.6 W 7 13 4 7 1012.4 - 0.0
20/11:00am 23.0 22.2 11.6 48 6.5 E 7 13 4 7 1012.9 - 0.0
20/10:30am 21.7 21.1 11.7 53 5.7 E 6 9 3 5 1013.2 - 0.0
20/10:00am 21.0 19.4 11.6 55 5.3 ESE 11 19 6 10 1013.4 - 0.0
20/09:30am 20.0 18.2 12.1 60 4.5 E 13 20 7 11 1013.7 - 0.0
20/09:00am 18.6 16.9 12.6 68 3.4 SE 13 19 7 10 1014.1 1013.0 0.0
20/08:30am 17.6 15.6 12.7 73 2.8 SE 15 20 8 11 1014.2 - 0.0
20/08:00am 16.5 14.2 13.0 80 2.0 SE 17 22 9 12 1014.0 - 0.0
20/07:57am 16.4 14.1 12.9 80 2.0 SE 17 22 9 12 1013.9 - 0.0
20/07:30am 15.1 12.2 13.0 87 1.2 ESE 20 24 11 13 1013.7 - 0.0
20/07:01am 14.2 13.3 12.6 90 0.9 SSE 9 13 5 7 1013.7 - 0.0
20/07:00am 14.2 13.3 12.6 90 0.9 SSE 9 13 5 7 1013.7 - 0.0
20/06:30am 13.2 11.7 11.9 92 0.7 SE 11 13 6 7 1013.7 - 0.0
20/06:00am 13.3 12.2 11.8 91 0.8 SE 9 13 5 7 1013.7 1012.5 0.0
20/05:30am 13.7 12.5 11.7 88 1.1 SSE 9 13 5 7 1013.4 - 0.0
20/05:00am 13.8 12.7 11.8 88 1.1 SSE 9 15 5 8 1013.2 - 0.0
20/04:30am 14.3 12.7 11.5 83 1.5 SSE 11 17 6 9 1013.2 - 0.0
20/04:00am 14.7 13.0 11.2 79 1.9 SSE 11 15 6 8 1013.2 - 0.0
20/03:30am 14.7 12.8 10.4 75 2.3 SSE 11 13 6 7 1013.4 - 0.0
20/03:00am 15.5 13.2 10.5 72 2.7 SSE 13 17 7 9 1013.4 1012.2 0.0
20/02:30am 16.1 14.1 10.1 67 3.2 SSE 11 15 6 8 1013.4 - 0.0
20/02:00am 16.6 14.6 10.1 65 3.5 SSE 11 17 6 9 1013.7 - 0.0
20/01:30am 17.2 14.8 10.2 63 3.8 SSE 13 19 7 10 1014.0 - 0.0
20/01:00am 17.6 14.9 10.2 62 4.0 SSE 15 20 8 11 1013.9 - 0.0
20/12:30am 18.2 15.8 9.9 58 4.5 SSE 13 19 7 10 1013.9 - 0.0
20/12:00am 18.7 15.5 9.8 56 4.8 SSE 17 24 9 13 1013.7 1012.5 0.0
 
Date/Time
WST
Temp
°C
App
Temp
°C
Dew
Point
Rel
Hum
%
Delta-T
°C
Wind Press
QNH
hPa
Press
MSL
hPa
Rain
since 9 am
mm
Dir
 
Spd
km/h
Gust
km/h
Spd
kts
Gust
kts
19/11:30pm 19.5 16.2 9.5 52 5.4 SSE 17 26 9 14 1013.8 - 0.0
19/11:00pm 20.2 16.8 9.3 49 5.9 SSE 17 24 9 13 1013.8 - 0.0
19/10:30pm 20.8 16.3 6.9 40 7.2 SSE 20 33 11 18 1013.6 - 0.0
19/10:17pm 22.2 15.5 3.4 29 9.2 S 28 33 15 18 1013.4 - 0.0
19/10:00pm 23.0 19.6 -0.3 21 10.7 N 7 11 4 6 1012.9 - 0.0
19/09:30pm 23.1 19.3 -0.5 21 10.8 N 9 11 5 6 1013.0 - 0.0
19/09:00pm 23.5 19.7 -0.4 20 11.0 N 9 11 5 6 1013.0 1011.8 0.0
19/08:30pm 23.4 19.3 -0.2 21 10.9 N 11 13 6 7 1013.0 - 0.0
19/08:00pm 23.6 20.4 1.0 22 10.7 N 7 9 4 5 1013.0 - 0.0
19/07:30pm 23.1 20.4 3.7 28 9.6 N 7 9 4 5 1013.0 - 0.0
19/07:00pm 24.6 21.6 1.9 22 11.0 N 7 9 4 5 1013.0 - 0.0
19/06:30pm 24.6 21.3 2.6 24 10.8 N 9 9 5 5 1013.0 - 0.0
19/06:00pm 26.9 23.8 1.5 19 12.4 N 7 7 4 4 1012.9 1011.7 0.0
19/05:30pm 27.9 24.1 -0.6 15 13.5 N 9 13 5 7 1012.8 - 0.0
19/05:00pm 30.4 25.6 -2.2 12 15.3 N 13 20 7 11 1012.8 - 0.0
19/04:30pm 31.3 26.2 -2.1 11 15.8 N 15 22 8 12 1012.8 - 0.0
19/04:00pm 31.7 26.5 -2.9 10 16.2 NW 15 24 8 13 1012.9 - 0.0
19/03:30pm 32.3 27.1 -2.6 10 16.5 WNW 15 24 8 13 1013.0 - 0.0
19/03:00pm 32.1 27.3 -2.7 10 16.4 NW 13 26 7 14 1013.3 1012.1 0.0
19/02:30pm 31.8 26.0 -1.6 11 16.0 N 19 35 10 19 1013.4 - 0.0
19/02:00pm 32.2 26.4 -1.5 11 16.2 NW 19 30 10 16 1013.6 - 0.0
19/01:30pm 31.8 26.0 0.2 13 15.6 N 20 30 11 16 1013.8 - 0.0
19/01:00pm 31.4 25.5 -0.9 12 15.6 NW 20 33 11 18 1014.2 - 0.0
19/12:30pm 31.2 25.8 1.2 14 15.0 NNW 19 28 10 15 1015.0 - 0.0
19/12:00pm 30.1 25.4 2.9 17 13.9 N 17 30 9 16 1015.6 1014.4 0.0
19/11:30am 29.3 24.2 4.3 20 13.0 N 20 26 11 14 1016.4 - 0.0
19/11:00am 28.4 23.5 5.2 23 12.2 N 20 28 11 15 1016.9 - 0.0
19/10:30am 27.3 22.8 6.2 26 11.2 N 19 26 10 14 1017.3 - 0.0
19/10:00am 25.8 20.4 6.2 28 10.3 N 24 32 13 17 1017.9 - 0.0
19/09:30am 25.1 20.8 7.1 31 9.6 N 19 24 10 13 1018.2 - 0.0
19/09:00am 23.6 19.3 7.7 36 8.5 N 20 24 11 13 1018.4 1017.2 0.0
19/08:30am 21.8 17.5 7.8 40 7.4 N 20 24 11 13 1018.5 - 0.0
19/08:00am 20.1 16.9 8.6 47 6.1 N 15 19 8 10 1018.5 - 0.0
19/07:30am 19.3 15.9 9.0 51 5.5 N 17 22 9 12 1018.5 - 0.0
19/07:00am 18.8 16.2 9.3 54 5.1 N 13 17 7 9 1018.2 - 0.0
19/06:30am 18.3 16.2 9.7 57 4.6 N 11 17 6 9 1018.1 - 0.0
19/06:00am 18.3 15.4 9.7 57 4.6 N 15 22 8 12 1018.1 1016.9 0.0
19/05:30am 18.2 15.7 9.8 58 4.5 N 13 20 7 11 1018.1 - 0.0
19/05:00am 18.6 15.7 9.7 56 4.8 N 15 20 8 11 1018.0 - 0.0
19/04:30am 18.5 15.6 9.8 57 4.7 N 15 20 8 11 1018.1 - 0.0
19/04:00am 18.4 16.0 9.9 57 4.6 N 13 20 7 11 1018.1 - 0.0
19/03:30am 18.2 16.6 10.1 59 4.4 NNE 9 13 5 7 1018.2 - 0.0
19/03:00am 18.6 16.9 9.9 57 4.7 NNE 9 13 5 7 1018.4 1017.2 0.0
19/02:30am 19.0 17.3 9.7 54 5.0 N 9 15 5 8 1018.5 - 0.0
19/02:00am 19.6 17.1 9.6 52 5.4 NNE 13 19 7 10 1018.6 - 0.0
19/01:30am 20.0 17.5 9.7 51 5.6 NNE 13 20 7 11 1018.7 - 0.0
19/01:00am 20.8 18.3 9.6 48 6.1 NNE 13 22 7 12 1019.0 - 0.0
19/12:30am 20.9 17.9 9.2 47 6.3 NNE 15 20 8 11 1019.0 - 0.0
19/12:00am 20.9 18.2 9.0 46 6.4 NNE 13 19 7 10 1019.1 1018.0 0.0
 
Date/Time
WST
Temp
°C
App
Temp
°C
Dew
Point
Rel
Hum
%
Delta-T
°C
Wind Press
QNH
hPa
Press
MSL
hPa
Rain
since 9 am
mm
Dir
 
Spd
km/h
Gust
km/h
Spd
kts
Gust
kts
18/11:30pm 20.9 18.1 8.5 45 6.6 NNE 13 19 7 10 1019.2 - 0.0
18/11:00pm 20.8 18.3 8.1 44 6.7 NNE 11 15 6 8 1019.4 - 0.0
18/10:30pm 20.6 18.5 8.1 44 6.6 NNE 9 13 5 7 1019.6 - 0.0
18/10:00pm 20.4 17.8 7.8 44 6.6 N 11 13 6 7 1019.9 - 0.0
18/09:30pm 20.7 18.5 7.7 43 6.8 NNE 9 11 5 6 1020.1 - 0.0
18/09:00pm 21.0 18.8 7.7 42 7.0 NNE 9 11 5 6 1020.2 1019.1 0.0
18/08:30pm 21.1 18.8 7.3 41 7.2 N 9 13 5 7 1020.2 - 0.0
18/08:00pm 22.0 19.7 7.3 38 7.7 NNE 9 13 5 7 1020.1 - 0.0
18/07:30pm 21.7 19.5 7.7 40 7.4 NNE 9 11 5 6 1020.0 - 0.0
18/07:00pm 22.5 20.7 7.8 38 7.8 NNE 7 9 4 5 1019.9 - 0.0
18/06:30pm 23.4 21.4 7.1 35 8.6 NNE 7 7 4 4 1019.8 - 0.0
18/06:00pm 24.6 22.5 6.8 32 9.4 NNE 7 9 4 5 1019.6 1018.5 0.0
18/05:30pm 25.6 23.1 6.5 29 10.1 NNE 9 11 5 6 1019.5 - 0.0
18/05:00pm 27.0 24.1 6.3 26 11.0 NNE 11 19 6 10 1019.4 - 0.0
18/04:30pm 27.7 24.7 6.0 25 11.5 NNE 11 17 6 9 1019.3 - 0.0
18/04:00pm 27.6 24.4 7.0 27 11.1 NNE 13 20 7 11 1019.5 - 0.0
18/03:30pm 28.2 25.3 6.6 25 11.6 N 11 19 6 10 1019.5 - 0.0
18/03:00pm 27.6 25.1 8.1 29 10.7 NNE 11 19 6 10 1019.6 1018.5 0.0
18/02:30pm 27.6 25.3 8.9 31 10.4 NE 11 19 6 10 1019.8 - 0.0
18/02:00pm 26.9 23.9 9.4 33 9.8 ENE 15 22 8 12 1020.1 - 0.0
18/01:30pm 25.4 22.2 9.8 37 8.7 ENE 17 22 9 12 1020.5 - 0.0
18/01:00pm 25.8 23.1 10.4 38 8.7 ENE 15 20 8 11 1020.9 - 0.0
18/12:30pm 24.2 21.5 10.5 42 7.7 E 15 22 8 12 1021.5 - 0.0
18/12:00pm 24.1 21.4 10.3 41 7.7 ENE 15 22 8 12 1022.1 1021.0 0.0
18/11:30am 23.1 20.1 10.6 45 7.0 ENE 17 24 9 13 1022.7 - 0.0
18/11:00am 22.7 20.1 10.7 46 6.7 ENE 15 22 8 12 1023.2 - 0.0
18/10:30am 21.6 18.6 10.8 50 6.0 E 17 22 9 12 1023.7 - 0.0
18/10:00am 20.9 18.4 11.0 53 5.5 E 15 20 8 11 1023.9 - 0.0
18/09:30am 19.6 16.7 11.1 58 4.7 E 17 28 9 15 1024.1 - 0.0
18/09:00am 18.9 15.7 11.1 60 4.3 E 19 26 10 14 1024.3 1023.2 0.0
18/08:30am 17.8 14.4 11.3 65 3.6 E 20 28 11 15 1024.4 - 0.0
18/08:00am 17.1 13.9 11.3 68 3.2 E 19 24 10 13 1024.5 - 0.0
18/07:30am 16.1 13.2 11.1 72 2.7 ESE 17 20 9 11 1024.3 - 0.0
18/07:16am 15.5 13.4 11.1 75 2.4 ESE 13 20 7 11 1024.2 - 0.0
18/07:00am 15.3 12.8 11.0 75 2.3 ESE 15 19 8 10 1024.1 - 0.0
18/06:30am 14.9 12.8 11.0 77 2.1 ESE 13 20 7 11 1023.9 - 0.0
18/06:03am 14.4 12.2 10.9 79 1.9 E 13 17 7 9 1023.9 - 0.0
18/06:00am 14.4 11.9 10.9 79 1.9 E 15 17 8 9 1023.9 1022.8 0.0
18/05:30am 14.6 11.2 10.7 77 2.1 ESE 19 22 10 12 1023.6 - 0.0
18/05:00am 15.1 11.5 10.6 74 2.4 E 20 30 11 16 1023.4 - 0.0
18/04:30am 15.5 11.8 10.0 70 2.9 E 20 24 11 13 1023.2 - 0.0
18/04:00am 15.8 11.7 10.2 69 3.0 E 22 30 12 16 1023.1 - 0.0
18/03:30am 15.9 12.4 10.1 68 3.1 E 19 26 10 14 1022.9 - 0.0
18/03:00am 16.0 12.3 9.6 66 3.4 ESE 19 22 10 12 1022.8 1021.7 0.0
18/02:30am 16.3 12.4 9.3 63 3.7 ESE 20 24 11 13 1022.6 - 0.0
18/02:00am 16.5 12.2 9.3 62 3.8 ESE 22 32 12 17 1022.6 - 0.0
18/01:30am 16.8 12.9 9.4 61 3.9 SE 20 28 11 15 1022.7 - 0.0
18/01:00am 17.6 13.4 9.7 60 4.2 SE 22 33 12 18 1022.7 - 0.0
18/12:30am 18.2 13.6 9.8 58 4.5 SE 24 35 13 19 1022.7 - 0.0
18/12:00am 18.8 14.2 9.7 55 4.9 SE 24 33 13 18 1022.6 1021.5 0.0
 
Date/Time
WST
Temp
°C
App
Temp
°C
Dew
Point
Rel
Hum
%
Delta-T
°C
Wind Press
QNH
hPa
Press
MSL
hPa
Rain
since 9 am
mm
Dir
 
Spd
km/h
Gust
km/h
Spd
kts
Gust
kts
17/11:30pm 19.3 14.7 9.6 53 5.2 SE 24 35 13 19 1022.5 - 0.0
17/11:00pm 20.1 16.1 8.4 47 6.2 SE 19 28 10 15 1022.3 - 0.0
17/10:30pm 21.0 17.1 6.9 40 7.3 SSE 17 24 9 13 1022.2 - 0.0
17/10:00pm 21.7 17.9 5.8 35 8.1 SSE 15 22 8 12 1021.8 - 0.0

Other Formats:

Comma delimited format used in spreadsheet applications
http://www.bom.gov.au/fwo/IDW60801/IDW60801.94637.axf

JavaScript Object Notation format (JSON) in row-major order
http://www.bom.gov.au/fwo/IDW60801/IDW60801.94637.json